sensor_id;sensor_type;location;lat;lon;timestamp;P1;durP1;ratioP1;P2;durP2;ratioP2
55663;SDS011;41540;57.880;12.164;2023-03-23T00:02:16;40.85;;;9.25;;
55663;SDS011;41540;57.880;12.164;2023-03-23T00:12:17;43.97;;;10.63;;
55663;SDS011;41540;57.880;12.164;2023-03-23T00:22:18;32.83;;;10.02;;
55663;SDS011;41540;57.880;12.164;2023-03-23T00:32:21;29.73;;;10.03;;
55663;SDS011;41540;57.880;12.164;2023-03-23T00:42:27;30.95;;;7.43;;
55663;SDS011;41540;57.880;12.164;2023-03-23T00:52:28;57.92;;;12.43;;
55663;SDS011;41540;57.880;12.164;2023-03-23T01:02:28;31.45;;;8.85;;
55663;SDS011;41540;57.880;12.164;2023-03-23T01:12:29;40.90;;;9.27;;
55663;SDS011;41540;57.880;12.164;2023-03-23T01:22:31;36.67;;;7.72;;
55663;SDS011;41540;57.880;12.164;2023-03-23T01:32:32;22.08;;;7.63;;
55663;SDS011;41540;57.880;12.164;2023-03-23T01:42:34;42.15;;;10.93;;
55663;SDS011;41540;57.880;12.164;2023-03-23T01:52:35;35.90;;;8.45;;
55663;SDS011;41540;57.880;12.164;2023-03-23T02:02:36;30.00;;;9.20;;
55663;SDS011;41540;57.880;12.164;2023-03-23T02:12:38;31.52;;;9.27;;
55663;SDS011;41540;57.880;12.164;2023-03-23T02:43:04;16.33;;;7.40;;
55663;SDS011;41540;57.880;12.164;2023-03-23T02:53:07;24.43;;;7.93;;
55663;SDS011;41540;57.880;12.164;2023-03-23T03:03:11;43.75;;;9.63;;
55663;SDS011;41540;57.880;12.164;2023-03-23T03:23:32;24.48;;;8.27;;
55663;SDS011;41540;57.880;12.164;2023-03-23T03:33:36;28.58;;;7.53;;
55663;SDS011;41540;57.880;12.164;2023-03-23T03:43:37;23.77;;;7.45;;
55663;SDS011;41540;57.880;12.164;2023-03-23T03:53:38;27.52;;;9.77;;
55663;SDS011;41540;57.880;12.164;2023-03-23T04:03:39;41.03;;;8.23;;
55663;SDS011;41540;57.880;12.164;2023-03-23T04:13:42;17.40;;;6.13;;
55663;SDS011;41540;57.880;12.164;2023-03-23T04:23:42;28.27;;;8.55;;
55663;SDS011;41540;57.880;12.164;2023-03-23T04:33:43;22.17;;;7.65;;
55663;SDS011;41540;57.880;12.164;2023-03-23T04:43:43;28.88;;;8.45;;
55663;SDS011;41540;57.880;12.164;2023-03-23T04:53:44;15.43;;;7.05;;
55663;SDS011;41540;57.880;12.164;2023-03-23T05:03:45;23.08;;;7.28;;
55663;SDS011;41540;57.880;12.164;2023-03-23T05:13:45;20.15;;;5.85;;
55663;SDS011;41540;57.880;12.164;2023-03-23T05:23:45;9.85;;;5.20;;
55663;SDS011;41540;57.880;12.164;2023-03-23T05:33:47;20.75;;;7.20;;
55663;SDS011;41540;57.880;12.164;2023-03-23T05:43:47;13.07;;;5.80;;
55663;SDS011;41540;57.880;12.164;2023-03-23T06:45:33;7.63;;;4.80;;
55663;SDS011;41540;57.880;12.164;2023-03-23T06:55:34;16.97;;;6.47;;
55663;SDS011;41540;57.880;12.164;2023-03-23T07:05:35;26.23;;;8.43;;
55663;SDS011;41540;57.880;12.164;2023-03-23T07:15:36;14.60;;;6.40;;
55663;SDS011;41540;57.880;12.164;2023-03-23T07:25:37;13.68;;;8.02;;
55663;SDS011;41540;57.880;12.164;2023-03-23T07:35:37;9.68;;;6.00;;
55663;SDS011;41540;57.880;12.164;2023-03-23T07:45:38;15.63;;;6.15;;
55663;SDS011;41540;57.880;12.164;2023-03-23T07:55:39;7.90;;;5.43;;
55663;SDS011;41540;57.880;12.164;2023-03-23T08:05:39;12.55;;;5.22;;
55663;SDS011;41540;57.880;12.164;2023-03-23T08:15:41;15.48;;;6.72;;
55663;SDS011;41540;57.880;12.164;2023-03-23T08:25:42;10.02;;;6.57;;
55663;SDS011;41540;57.880;12.164;2023-03-23T08:35:43;11.38;;;6.07;;
55663;SDS011;41540;57.880;12.164;2023-03-23T08:45:44;16.63;;;7.82;;
55663;SDS011;41540;57.880;12.164;2023-03-23T08:55:44;13.10;;;7.60;;
55663;SDS011;41540;57.880;12.164;2023-03-23T09:05:45;9.15;;;7.03;;
55663;SDS011;41540;57.880;12.164;2023-03-23T09:15:46;8.95;;;7.60;;
55663;SDS011;41540;57.880;12.164;2023-03-23T09:25:46;6.03;;;5.43;;
55663;SDS011;41540;57.880;12.164;2023-03-23T09:35:47;14.52;;;7.30;;
55663;SDS011;41540;57.880;12.164;2023-03-23T09:46:03;10.77;;;5.70;;
55663;SDS011;41540;57.880;12.164;2023-03-23T09:56:14;9.52;;;5.78;;
55663;SDS011;41540;57.880;12.164;2023-03-23T10:06:16;8.98;;;5.13;;
55663;SDS011;41540;57.880;12.164;2023-03-23T10:16:20;8.40;;;4.72;;
55663;SDS011;41540;57.880;12.164;2023-03-23T10:26:39;7.10;;;4.57;;
55663;SDS011;41540;57.880;12.164;2023-03-23T10:36:56;5.00;;;4.38;;
55663;SDS011;41540;57.880;12.164;2023-03-23T10:47:00;12.02;;;8.00;;
55663;SDS011;41540;57.880;12.164;2023-03-23T10:57:01;15.35;;;10.95;;
55663;SDS011;41540;57.880;12.164;2023-03-23T11:07:20;11.88;;;7.25;;
55663;SDS011;41540;57.880;12.164;2023-03-23T11:17:25;9.98;;;8.98;;
55663;SDS011;41540;57.880;12.164;2023-03-23T11:27:28;8.82;;;7.13;;
55663;SDS011;41540;57.880;12.164;2023-03-23T11:37:39;8.70;;;6.82;;
55663;SDS011;41540;57.880;12.164;2023-03-23T11:47:43;6.35;;;5.05;;
55663;SDS011;41540;57.880;12.164;2023-03-23T11:57:45;5.35;;;3.55;;
55663;SDS011;41540;57.880;12.164;2023-03-23T12:17:56;1.20;;;1.05;;
55663;SDS011;41540;57.880;12.164;2023-03-23T12:28:01;2.10;;;1.85;;
55663;SDS011;41540;57.880;12.164;2023-03-23T12:48:26;2.30;;;1.30;;
55663;SDS011;41540;57.880;12.164;2023-03-23T12:58:27;2.00;;;1.02;;
55663;SDS011;41540;57.880;12.164;2023-03-23T13:08:36;1.08;;;1.00;;
55663;SDS011;41540;57.880;12.164;2023-03-23T13:18:56;1.23;;;1.13;;
55663;SDS011;41540;57.880;12.164;2023-03-23T13:29:00;2.42;;;1.33;;
55663;SDS011;41540;57.880;12.164;2023-03-23T13:39:05;3.03;;;1.17;;
55663;SDS011;41540;57.880;12.164;2023-03-23T13:59:27;6.22;;;1.85;;
55663;SDS011;41540;57.880;12.164;2023-03-23T14:09:31;9.35;;;2.70;;
55663;SDS011;41540;57.880;12.164;2023-03-23T14:19:32;11.65;;;3.90;;
55663;SDS011;41540;57.880;12.164;2023-03-23T14:29:33;17.58;;;3.75;;
55663;SDS011;41540;57.880;12.164;2023-03-23T14:39:35;33.08;;;4.80;;
55663;SDS011;41540;57.880;12.164;2023-03-23T14:49:38;28.07;;;5.10;;
55663;SDS011;41540;57.880;12.164;2023-03-23T14:59:41;17.23;;;5.35;;
55663;SDS011;41540;57.880;12.164;2023-03-23T15:09:43;26.23;;;5.07;;
55663;SDS011;41540;57.880;12.164;2023-03-23T15:19:55;19.20;;;5.25;;
55663;SDS011;41540;57.880;12.164;2023-03-23T15:29:58;21.95;;;6.07;;
55663;SDS011;41540;57.880;12.164;2023-03-23T15:40:01;26.70;;;7.15;;
55663;SDS011;41540;57.880;12.164;2023-03-23T15:50:13;31.80;;;8.05;;
55663;SDS011;41540;57.880;12.164;2023-03-23T16:00:14;27.67;;;6.45;;
55663;SDS011;41540;57.880;12.164;2023-03-23T16:10:19;22.73;;;5.80;;
55663;SDS011;41540;57.880;12.164;2023-03-23T16:20:21;18.83;;;5.25;;
55663;SDS011;41540;57.880;12.164;2023-03-23T16:30:27;17.02;;;6.00;;
55663;SDS011;41540;57.880;12.164;2023-03-23T16:40:28;25.80;;;5.65;;
55663;SDS011;41540;57.880;12.164;2023-03-23T16:50:28;19.87;;;5.80;;
55663;SDS011;41540;57.880;12.164;2023-03-23T17:00:29;18.17;;;6.15;;
55663;SDS011;41540;57.880;12.164;2023-03-23T17:10:29;19.63;;;6.15;;
55663;SDS011;41540;57.880;12.164;2023-03-23T17:20:30;35.78;;;7.90;;
55663;SDS011;41540;57.880;12.164;2023-03-23T17:30:30;26.63;;;6.65;;
55663;SDS011;41540;57.880;12.164;2023-03-23T17:40:31;29.33;;;6.93;;
55663;SDS011;41540;57.880;12.164;2023-03-23T17:50:32;15.55;;;4.53;;
55663;SDS011;41540;57.880;12.164;2023-03-23T18:00:36;28.60;;;5.97;;
55663;SDS011;41540;57.880;12.164;2023-03-23T18:20:37;22.92;;;5.53;;
55663;SDS011;41540;57.880;12.164;2023-03-23T18:30:38;14.93;;;5.35;;
55663;SDS011;41540;57.880;12.164;2023-03-23T18:40:42;33.53;;;7.05;;
55663;SDS011;41540;57.880;12.164;2023-03-23T18:50:49;19.27;;;6.22;;
55663;SDS011;41540;57.880;12.164;2023-03-23T19:00:54;20.85;;;6.15;;
55663;SDS011;41540;57.880;12.164;2023-03-23T19:10:58;17.88;;;5.13;;
55663;SDS011;41540;57.880;12.164;2023-03-23T19:21:00;21.30;;;5.72;;
55663;SDS011;41540;57.880;12.164;2023-03-23T19:51:21;18.38;;;6.82;;
55663;SDS011;41540;57.880;12.164;2023-03-23T20:01:23;20.23;;;4.68;;
55663;SDS011;41540;57.880;12.164;2023-03-23T20:11:24;24.95;;;6.70;;
55663;SDS011;41540;57.880;12.164;2023-03-23T20:21:25;26.83;;;6.75;;
55663;SDS011;41540;57.880;12.164;2023-03-23T20:31:26;22.67;;;4.70;;
55663;SDS011;41540;57.880;12.164;2023-03-23T20:41:31;18.60;;;5.03;;
55663;SDS011;41540;57.880;12.164;2023-03-23T21:01:32;18.73;;;3.30;;
55663;SDS011;41540;57.880;12.164;2023-03-23T21:21:43;17.30;;;4.50;;
55663;SDS011;41540;57.880;12.164;2023-03-23T21:31:43;25.77;;;5.93;;
55663;SDS011;41540;57.880;12.164;2023-03-23T21:41:44;24.83;;;5.65;;
55663;SDS011;41540;57.880;12.164;2023-03-23T22:01:54;19.05;;;5.28;;
55663;SDS011;41540;57.880;12.164;2023-03-23T22:11:57;13.25;;;5.40;;
55663;SDS011;41540;57.880;12.164;2023-03-23T22:22:02;19.27;;;8.95;;
55663;SDS011;41540;57.880;12.164;2023-03-23T22:32:06;19.85;;;5.82;;
55663;SDS011;41540;57.880;12.164;2023-03-23T22:42:06;22.88;;;6.45;;
55663;SDS011;41540;57.880;12.164;2023-03-23T22:52:08;14.40;;;6.80;;
55663;SDS011;41540;57.880;12.164;2023-03-23T23:02:08;19.17;;;6.10;;
55663;SDS011;41540;57.880;12.164;2023-03-23T23:12:09;25.30;;;5.78;;
55663;SDS011;41540;57.880;12.164;2023-03-23T23:22:10;25.38;;;6.28;;
55663;SDS011;41540;57.880;12.164;2023-03-23T23:32:13;33.30;;;9.52;;
55663;SDS011;41540;57.880;12.164;2023-03-23T23:42:15;34.45;;;8.73;;
55663;SDS011;41540;57.880;12.164;2023-03-23T23:52:18;19.75;;;8.05;;
